X  Schließen Metar Luftfahrt Wetterdaten     LIML Milano Linate Airport
Temperatur
21°C Temperatur
20°C Taupunkt
94% Feuchtigkeit



Wind
3 KM/H
2 MPH
1 M/S
2 KTS



Kein Wind
Nord
Aktuelle Wetterlage

Teilweise bewölkt Teilweise bewölkt
Luftdruck 1012.92 (hPa) - 29.91 (inHg)
Sichtweite 6.2 (Meile) - 10 (km)
Flughafen
Flughafen Code LIML

Position : Milano Linate Airport
Entfernung: 100 (km)

Metar:
LIML 140350Z AUTO VRB02KT 9999 FEW160/// SCT220/// 21/20 Q1013

Zeit: 14-08-2020 05:50 CEST